sensor_id;sensor_type;location;lat;lon;timestamp;P1;durP1;ratioP1;P2;durP2;ratioP2
78885;SDS011;68269;52.514;5.722;2023-03-13T00:00:18;8.55;;;1.60;;
78885;SDS011;68269;52.514;5.722;2023-03-13T00:02:48;13.98;;;1.88;;
78885;SDS011;68269;52.514;5.722;2023-03-13T00:05:17;16.52;;;2.67;;
78885;SDS011;68269;52.514;5.722;2023-03-13T00:07:46;13.38;;;2.00;;
78885;SDS011;68269;52.514;5.722;2023-03-13T00:10:16;11.02;;;2.45;;
78885;SDS011;68269;52.514;5.722;2023-03-13T00:12:47;11.25;;;2.40;;
78885;SDS011;68269;52.514;5.722;2023-03-13T00:15:17;10.02;;;1.52;;
78885;SDS011;68269;52.514;5.722;2023-03-13T00:17:46;7.85;;;2.60;;
78885;SDS011;68269;52.514;5.722;2023-03-13T00:20:16;11.27;;;1.98;;
78885;SDS011;68269;52.514;5.722;2023-03-13T00:22:45;7.43;;;1.30;;
78885;SDS011;68269;52.514;5.722;2023-03-13T00:25:14;10.20;;;2.13;;
78885;SDS011;68269;52.514;5.722;2023-03-13T00:27:46;7.63;;;2.17;;
78885;SDS011;68269;52.514;5.722;2023-03-13T00:30:16;13.82;;;3.40;;
78885;SDS011;68269;52.514;5.722;2023-03-13T00:32:45;15.48;;;3.78;;
78885;SDS011;68269;52.514;5.722;2023-03-13T00:35:15;12.73;;;2.45;;
78885;SDS011;68269;52.514;5.722;2023-03-13T00:37:44;15.35;;;2.47;;
78885;SDS011;68269;52.514;5.722;2023-03-13T00:40:14;14.07;;;2.47;;
78885;SDS011;68269;52.514;5.722;2023-03-13T00:42:43;9.15;;;2.00;;
78885;SDS011;68269;52.514;5.722;2023-03-13T00:45:16;7.97;;;1.63;;
78885;SDS011;68269;52.514;5.722;2023-03-13T00:47:46;15.68;;;1.75;;
78885;SDS011;68269;52.514;5.722;2023-03-13T00:50:15;8.50;;;1.73;;
78885;SDS011;68269;52.514;5.722;2023-03-13T00:52:45;7.38;;;1.58;;
78885;SDS011;68269;52.514;5.722;2023-03-13T00:55:14;7.55;;;1.52;;
78885;SDS011;68269;52.514;5.722;2023-03-13T00:57:44;13.18;;;1.90;;
78885;SDS011;68269;52.514;5.722;2023-03-13T01:00:16;6.00;;;1.63;;
78885;SDS011;68269;52.514;5.722;2023-03-13T01:02:46;12.05;;;2.30;;
78885;SDS011;68269;52.514;5.722;2023-03-13T01:05:15;12.15;;;2.03;;
78885;SDS011;68269;52.514;5.722;2023-03-13T01:07:45;6.35;;;1.25;;
78885;SDS011;68269;52.514;5.722;2023-03-13T01:10:15;10.00;;;2.72;;
78885;SDS011;68269;52.514;5.722;2023-03-13T01:12:47;6.10;;;1.30;;
78885;SDS011;68269;52.514;5.722;2023-03-13T01:15:17;10.48;;;1.50;;
78885;SDS011;68269;52.514;5.722;2023-03-13T01:17:47;9.27;;;1.92;;
78885;SDS011;68269;52.514;5.722;2023-03-13T01:20:16;11.88;;;2.42;;
78885;SDS011;68269;52.514;5.722;2023-03-13T01:22:46;14.75;;;1.73;;
78885;SDS011;68269;52.514;5.722;2023-03-13T01:25:15;8.52;;;1.35;;
78885;SDS011;68269;52.514;5.722;2023-03-13T01:27:48;10.13;;;1.95;;
78885;SDS011;68269;52.514;5.722;2023-03-13T01:30:18;5.95;;;1.45;;
78885;SDS011;68269;52.514;5.722;2023-03-13T01:32:48;10.40;;;1.80;;
78885;SDS011;68269;52.514;5.722;2023-03-13T01:35:17;7.35;;;2.47;;
78885;SDS011;68269;52.514;5.722;2023-03-13T01:37:47;8.45;;;1.98;;
78885;SDS011;68269;52.514;5.722;2023-03-13T01:40:16;11.25;;;1.83;;
78885;SDS011;68269;52.514;5.722;2023-03-13T01:42:55;7.82;;;1.60;;
78885;SDS011;68269;52.514;5.722;2023-03-13T01:48:23;12.68;;;1.30;;
78885;SDS011;68269;52.514;5.722;2023-03-13T01:50:55;6.10;;;1.67;;
78885;SDS011;68269;52.514;5.722;2023-03-13T01:53:27;4.65;;;0.98;;
78885;SDS011;68269;52.514;5.722;2023-03-13T01:55:59;4.35;;;1.23;;
78885;SDS011;68269;52.514;5.722;2023-03-13T01:58:36;4.15;;;1.45;;
78885;SDS011;68269;52.514;5.722;2023-03-13T02:01:05;5.75;;;1.40;;
78885;SDS011;68269;52.514;5.722;2023-03-13T02:03:36;3.30;;;1.00;;
78885;SDS011;68269;52.514;5.722;2023-03-13T02:06:06;3.50;;;1.00;;
78885;SDS011;68269;52.514;5.722;2023-03-13T02:08:36;5.35;;;1.27;;
78885;SDS011;68269;52.514;5.722;2023-03-13T02:11:13;3.17;;;0.98;;
78885;SDS011;68269;52.514;5.722;2023-03-13T02:13:52;4.43;;;0.93;;
78885;SDS011;68269;52.514;5.722;2023-03-13T02:16:23;3.35;;;0.98;;
78885;SDS011;68269;52.514;5.722;2023-03-13T02:18:53;5.75;;;1.20;;
78885;SDS011;68269;52.514;5.722;2023-03-13T02:21:30;4.45;;;1.40;;
78885;SDS011;68269;52.514;5.722;2023-03-13T02:24:10;3.97;;;1.20;;
78885;SDS011;68269;52.514;5.722;2023-03-13T02:26:47;5.72;;;1.30;;
78885;SDS011;68269;52.514;5.722;2023-03-13T02:29:17;4.60;;;1.60;;
78885;SDS011;68269;52.514;5.722;2023-03-13T02:31:46;5.40;;;0.70;;
78885;SDS011;68269;52.514;5.722;2023-03-13T02:34:16;4.32;;;0.88;;
78885;SDS011;68269;52.514;5.722;2023-03-13T02:36:57;4.70;;;1.02;;
78885;SDS011;68269;52.514;5.722;2023-03-13T02:39:27;2.30;;;0.73;;
78885;SDS011;68269;52.514;5.722;2023-03-13T02:42:02;6.57;;;1.33;;
78885;SDS011;68269;52.514;5.722;2023-03-13T02:44:36;3.83;;;0.90;;
78885;SDS011;68269;52.514;5.722;2023-03-13T02:47:07;8.10;;;1.92;;
78885;SDS011;68269;52.514;5.722;2023-03-13T02:49:37;3.20;;;1.08;;
78885;SDS011;68269;52.514;5.722;2023-03-13T02:52:09;3.67;;;1.20;;
78885;SDS011;68269;52.514;5.722;2023-03-13T02:54:43;7.00;;;1.58;;
78885;SDS011;68269;52.514;5.722;2023-03-13T02:57:18;3.58;;;1.17;;
78885;SDS011;68269;52.514;5.722;2023-03-13T02:59:47;4.60;;;1.27;;
78885;SDS011;68269;52.514;5.722;2023-03-13T03:02:16;4.13;;;1.58;;
78885;SDS011;68269;52.514;5.722;2023-03-13T03:04:46;4.38;;;1.25;;
78885;SDS011;68269;52.514;5.722;2023-03-13T03:07:15;7.40;;;1.20;;
78885;SDS011;68269;52.514;5.722;2023-03-13T03:09:44;3.35;;;1.10;;
78885;SDS011;68269;52.514;5.722;2023-03-13T03:12:20;5.38;;;1.25;;
78885;SDS011;68269;52.514;5.722;2023-03-13T03:14:50;4.63;;;1.50;;
78885;SDS011;68269;52.514;5.722;2023-03-13T03:17:19;5.18;;;1.75;;
78885;SDS011;68269;52.514;5.722;2023-03-13T03:19:49;5.13;;;1.67;;
78885;SDS011;68269;52.514;5.722;2023-03-13T03:22:19;4.07;;;1.33;;
78885;SDS011;68269;52.514;5.722;2023-03-13T03:24:48;5.40;;;1.70;;
78885;SDS011;68269;52.514;5.722;2023-03-13T03:27:20;4.22;;;1.52;;
78885;SDS011;68269;52.514;5.722;2023-03-13T03:29:52;6.75;;;1.70;;
78885;SDS011;68269;52.514;5.722;2023-03-13T03:32:22;5.88;;;1.48;;
78885;SDS011;68269;52.514;5.722;2023-03-13T03:34:53;4.70;;;1.60;;
78885;SDS011;68269;52.514;5.722;2023-03-13T03:37:23;7.05;;;2.03;;
78885;SDS011;68269;52.514;5.722;2023-03-13T03:39:52;6.82;;;1.45;;
78885;SDS011;68269;52.514;5.722;2023-03-13T03:42:24;5.90;;;2.05;;
78885;SDS011;68269;52.514;5.722;2023-03-13T03:44:54;5.65;;;2.03;;
78885;SDS011;68269;52.514;5.722;2023-03-13T03:47:23;7.40;;;1.92;;
78885;SDS011;68269;52.514;5.722;2023-03-13T03:49:52;7.57;;;2.63;;
78885;SDS011;68269;52.514;5.722;2023-03-13T03:52:21;5.35;;;2.00;;
78885;SDS011;68269;52.514;5.722;2023-03-13T03:54:51;9.57;;;2.30;;
78885;SDS011;68269;52.514;5.722;2023-03-13T03:57:21;8.20;;;2.20;;
78885;SDS011;68269;52.514;5.722;2023-03-13T03:59:52;8.50;;;2.85;;
78885;SDS011;68269;52.514;5.722;2023-03-13T04:02:22;8.10;;;2.38;;
78885;SDS011;68269;52.514;5.722;2023-03-13T04:04:51;9.25;;;2.92;;
78885;SDS011;68269;52.514;5.722;2023-03-13T04:07:26;8.60;;;2.63;;
78885;SDS011;68269;52.514;5.722;2023-03-13T04:09:55;11.40;;;2.63;;
78885;SDS011;68269;52.514;5.722;2023-03-13T04:12:35;10.75;;;2.53;;
78885;SDS011;68269;52.514;5.722;2023-03-13T04:15:07;9.55;;;2.50;;
78885;SDS011;68269;52.514;5.722;2023-03-13T04:20:08;7.90;;;2.78;;
78885;SDS011;68269;52.514;5.722;2023-03-13T04:22:39;8.20;;;2.17;;
78885;SDS011;68269;52.514;5.722;2023-03-13T04:25:10;7.75;;;2.45;;
78885;SDS011;68269;52.514;5.722;2023-03-13T04:27:39;8.98;;;2.05;;
78885;SDS011;68269;52.514;5.722;2023-03-13T04:30:12;8.38;;;2.58;;
78885;SDS011;68269;52.514;5.722;2023-03-13T04:33:07;7.65;;;2.08;;
78885;SDS011;68269;52.514;5.722;2023-03-13T04:36:03;6.25;;;1.67;;
78885;SDS011;68269;52.514;5.722;2023-03-13T04:39:02;8.98;;;2.35;;
78885;SDS011;68269;52.514;5.722;2023-03-13T04:41:50;5.85;;;1.73;;
78885;SDS011;68269;52.514;5.722;2023-03-13T04:44:31;11.55;;;1.88;;
78885;SDS011;68269;52.514;5.722;2023-03-13T04:47:27;4.22;;;1.48;;
78885;SDS011;68269;52.514;5.722;2023-03-13T04:50:18;6.85;;;1.92;;
78885;SDS011;68269;52.514;5.722;2023-03-13T04:53:02;4.72;;;1.90;;
78885;SDS011;68269;52.514;5.722;2023-03-13T04:55:45;4.10;;;1.40;;
78885;SDS011;68269;52.514;5.722;2023-03-13T04:58:36;6.35;;;1.60;;
78885;SDS011;68269;52.514;5.722;2023-03-13T05:01:12;5.25;;;1.45;;
78885;SDS011;68269;52.514;5.722;2023-03-13T05:04:04;5.55;;;1.95;;
78885;SDS011;68269;52.514;5.722;2023-03-13T05:06:52;5.82;;;1.63;;
78885;SDS011;68269;52.514;5.722;2023-03-13T05:09:42;5.68;;;1.50;;
78885;SDS011;68269;52.514;5.722;2023-03-13T05:12:31;7.25;;;1.38;;
78885;SDS011;68269;52.514;5.722;2023-03-13T05:15:10;9.70;;;2.17;;
78885;SDS011;68269;52.514;5.722;2023-03-13T05:18:00;8.80;;;1.55;;
78885;SDS011;68269;52.514;5.722;2023-03-13T05:20:50;7.50;;;2.15;;
78885;SDS011;68269;52.514;5.722;2023-03-13T05:23:38;5.40;;;1.80;;
78885;SDS011;68269;52.514;5.722;2023-03-13T05:26:36;6.07;;;2.20;;
78885;SDS011;68269;52.514;5.722;2023-03-13T05:29:32;5.53;;;1.75;;
78885;SDS011;68269;52.514;5.722;2023-03-13T05:32:21;4.40;;;1.48;;
78885;SDS011;68269;52.514;5.722;2023-03-13T05:34:50;6.00;;;1.65;;
78885;SDS011;68269;52.514;5.722;2023-03-13T05:37:37;6.30;;;1.35;;
78885;SDS011;68269;52.514;5.722;2023-03-13T05:40:30;5.50;;;1.80;;
78885;SDS011;68269;52.514;5.722;2023-03-13T05:43:02;4.88;;;1.40;;
78885;SDS011;68269;52.514;5.722;2023-03-13T05:46:04;6.35;;;1.55;;
78885;SDS011;68269;52.514;5.722;2023-03-13T05:48:42;4.57;;;1.10;;
78885;SDS011;68269;52.514;5.722;2023-03-13T05:51:32;7.20;;;1.90;;
78885;SDS011;68269;52.514;5.722;2023-03-13T05:54:23;6.43;;;2.28;;
78885;SDS011;68269;52.514;5.722;2023-03-13T05:57:18;5.50;;;1.67;;
78885;SDS011;68269;52.514;5.722;2023-03-13T06:00:02;4.07;;;1.60;;
78885;SDS011;68269;52.514;5.722;2023-03-13T06:03:10;6.57;;;1.33;;
78885;SDS011;68269;52.514;5.722;2023-03-13T06:05:42;6.85;;;1.85;;
78885;SDS011;68269;52.514;5.722;2023-03-13T06:08:24;4.90;;;1.42;;
78885;SDS011;68269;52.514;5.722;2023-03-13T06:10:56;8.98;;;1.45;;
78885;SDS011;68269;52.514;5.722;2023-03-13T06:13:27;6.45;;;2.22;;
78885;SDS011;68269;52.514;5.722;2023-03-13T06:16:01;10.00;;;2.30;;
78885;SDS011;68269;52.514;5.722;2023-03-13T06:18:49;7.60;;;1.27;;
78885;SDS011;68269;52.514;5.722;2023-03-13T06:21:18;8.80;;;2.33;;
78885;SDS011;68269;52.514;5.722;2023-03-13T06:23:47;12.30;;;1.92;;
78885;SDS011;68269;52.514;5.722;2023-03-13T06:26:19;6.32;;;1.92;;
78885;SDS011;68269;52.514;5.722;2023-03-13T06:31:19;6.28;;;1.80;;
78885;SDS011;68269;52.514;5.722;2023-03-13T06:33:51;10.43;;;1.83;;
78885;SDS011;68269;52.514;5.722;2023-03-13T06:36:21;4.53;;;1.10;;
78885;SDS011;68269;52.514;5.722;2023-03-13T06:38:50;8.02;;;1.75;;
78885;SDS011;68269;52.514;5.722;2023-03-13T06:41:22;5.82;;;1.60;;
78885;SDS011;68269;52.514;5.722;2023-03-13T06:43:52;6.63;;;1.30;;
78885;SDS011;68269;52.514;5.722;2023-03-13T06:46:22;8.93;;;1.85;;
78885;SDS011;68269;52.514;5.722;2023-03-13T06:48:52;8.57;;;1.83;;
78885;SDS011;68269;52.514;5.722;2023-03-13T06:51:21;8.23;;;1.58;;
78885;SDS011;68269;52.514;5.722;2023-03-13T06:53:51;10.10;;;1.63;;
78885;SDS011;68269;52.514;5.722;2023-03-13T06:56:23;4.25;;;1.42;;
78885;SDS011;68269;52.514;5.722;2023-03-13T06:58:52;4.82;;;1.50;;
78885;SDS011;68269;52.514;5.722;2023-03-13T07:01:21;5.95;;;0.98;;
78885;SDS011;68269;52.514;5.722;2023-03-13T07:03:51;6.18;;;1.63;;
78885;SDS011;68269;52.514;5.722;2023-03-13T07:06:21;4.30;;;1.23;;
78885;SDS011;68269;52.514;5.722;2023-03-13T07:08:51;7.95;;;1.15;;
78885;SDS011;68269;52.514;5.722;2023-03-13T07:11:23;4.13;;;1.10;;
78885;SDS011;68269;52.514;5.722;2023-03-13T07:13:53;6.63;;;1.55;;
78885;SDS011;68269;52.514;5.722;2023-03-13T07:16:26;9.35;;;1.17;;
78885;SDS011;68269;52.514;5.722;2023-03-13T07:18:55;5.38;;;1.33;;
78885;SDS011;68269;52.514;5.722;2023-03-13T07:21:25;6.40;;;1.80;;
78885;SDS011;68269;52.514;5.722;2023-03-13T07:23:54;5.50;;;1.50;;
78885;SDS011;68269;52.514;5.722;2023-03-13T07:26:26;4.53;;;1.58;;
78885;SDS011;68269;52.514;5.722;2023-03-13T07:28:55;11.90;;;1.48;;
78885;SDS011;68269;52.514;5.722;2023-03-13T07:31:24;6.85;;;1.50;;
78885;SDS011;68269;52.514;5.722;2023-03-13T07:33:54;7.35;;;1.60;;
78885;SDS011;68269;52.514;5.722;2023-03-13T07:36:24;5.70;;;1.35;;
78885;SDS011;68269;52.514;5.722;2023-03-13T07:38:54;5.50;;;1.60;;
78885;SDS011;68269;52.514;5.722;2023-03-13T07:41:26;6.25;;;1.60;;
78885;SDS011;68269;52.514;5.722;2023-03-13T07:43:55;7.32;;;1.10;;
78885;SDS011;68269;52.514;5.722;2023-03-13T07:46:24;2.85;;;0.80;;
78885;SDS011;68269;52.514;5.722;2023-03-13T07:48:54;6.93;;;1.38;;
78885;SDS011;68269;52.514;5.722;2023-03-13T07:51:23;7.07;;;1.25;;
78885;SDS011;68269;52.514;5.722;2023-03-13T07:53:53;5.88;;;1.50;;
78885;SDS011;68269;52.514;5.722;2023-03-13T07:56:23;4.43;;;1.48;;
78885;SDS011;68269;52.514;5.722;2023-03-13T07:58:55;5.65;;;1.23;;
78885;SDS011;68269;52.514;5.722;2023-03-13T08:01:25;3.30;;;1.08;;
78885;SDS011;68269;52.514;5.722;2023-03-13T08:03:55;4.57;;;1.30;;
78885;SDS011;68269;52.514;5.722;2023-03-13T08:06:24;8.63;;;2.05;;
78885;SDS011;68269;52.514;5.722;2023-03-13T08:08:55;5.03;;;1.25;;
78885;SDS011;68269;52.514;5.722;2023-03-13T08:11:28;3.78;;;1.13;;
78885;SDS011;68269;52.514;5.722;2023-03-13T08:13:57;5.75;;;1.95;;
78885;SDS011;68269;52.514;5.722;2023-03-13T08:16:27;5.57;;;1.20;;
78885;SDS011;68269;52.514;5.722;2023-03-13T08:18:59;7.32;;;1.10;;
78885;SDS011;68269;52.514;5.722;2023-03-13T08:21:31;5.85;;;1.60;;
78885;SDS011;68269;52.514;5.722;2023-03-13T08:24:01;5.03;;;1.25;;
78885;SDS011;68269;52.514;5.722;2023-03-13T08:26:35;4.60;;;1.25;;
78885;SDS011;68269;52.514;5.722;2023-03-13T08:29:06;3.00;;;1.00;;
78885;SDS011;68269;52.514;5.722;2023-03-13T08:31:37;4.88;;;1.33;;
78885;SDS011;68269;52.514;5.722;2023-03-13T08:34:10;2.75;;;1.02;;
78885;SDS011;68269;52.514;5.722;2023-03-13T08:36:41;7.75;;;1.50;;
78885;SDS011;68269;52.514;5.722;2023-03-13T08:39:11;6.18;;;1.60;;
78885;SDS011;68269;52.514;5.722;2023-03-13T08:41:43;5.22;;;1.52;;
78885;SDS011;68269;52.514;5.722;2023-03-13T08:44:13;5.03;;;1.52;;
78885;SDS011;68269;52.514;5.722;2023-03-13T08:46:44;4.95;;;1.30;;
78885;SDS011;68269;52.514;5.722;2023-03-13T08:49:14;7.72;;;1.50;;
78885;SDS011;68269;52.514;5.722;2023-03-13T08:51:44;5.07;;;1.60;;
78885;SDS011;68269;52.514;5.722;2023-03-13T08:54:14;5.07;;;1.33;;
78885;SDS011;68269;52.514;5.722;2023-03-13T08:56:46;4.90;;;1.20;;
78885;SDS011;68269;52.514;5.722;2023-03-13T08:59:15;5.40;;;1.45;;
78885;SDS011;68269;52.514;5.722;2023-03-13T09:01:44;4.22;;;0.90;;
78885;SDS011;68269;52.514;5.722;2023-03-13T09:04:14;4.38;;;1.25;;
78885;SDS011;68269;52.514;5.722;2023-03-13T09:06:43;5.13;;;1.27;;
78885;SDS011;68269;52.514;5.722;2023-03-13T09:09:12;8.82;;;1.40;;
78885;SDS011;68269;52.514;5.722;2023-03-13T09:11:42;7.10;;;1.13;;
78885;SDS011;68269;52.514;5.722;2023-03-13T09:14:14;6.85;;;1.30;;
78885;SDS011;68269;52.514;5.722;2023-03-13T09:16:43;3.65;;;0.95;;
78885;SDS011;68269;52.514;5.722;2023-03-13T09:19:12;4.03;;;1.10;;
78885;SDS011;68269;52.514;5.722;2023-03-13T09:21:42;4.38;;;1.23;;
78885;SDS011;68269;52.514;5.722;2023-03-13T09:24:13;3.83;;;0.95;;
78885;SDS011;68269;52.514;5.722;2023-03-13T09:26:43;5.97;;;1.63;;
78885;SDS011;68269;52.514;5.722;2023-03-13T09:29:15;4.13;;;1.20;;
78885;SDS011;68269;52.514;5.722;2023-03-13T09:31:44;6.30;;;1.73;;
78885;SDS011;68269;52.514;5.722;2023-03-13T09:34:13;4.70;;;1.30;;
78885;SDS011;68269;52.514;5.722;2023-03-13T09:36:42;4.47;;;1.10;;
78885;SDS011;68269;52.514;5.722;2023-03-13T09:39:12;5.65;;;1.10;;
78885;SDS011;68269;52.514;5.722;2023-03-13T09:41:42;8.02;;;1.90;;
78885;SDS011;68269;52.514;5.722;2023-03-13T09:44:21;8.13;;;1.33;;
78885;SDS011;68269;52.514;5.722;2023-03-13T09:46:57;5.97;;;1.45;;
78885;SDS011;68269;52.514;5.722;2023-03-13T09:49:32;5.47;;;0.82;;
78885;SDS011;68269;52.514;5.722;2023-03-13T09:52:06;4.78;;;1.38;;
78885;SDS011;68269;52.514;5.722;2023-03-13T09:57:17;4.10;;;1.10;;
78885;SDS011;68269;52.514;5.722;2023-03-13T09:59:56;4.03;;;1.13;;
78885;SDS011;68269;52.514;5.722;2023-03-13T10:02:33;7.45;;;1.30;;
78885;SDS011;68269;52.514;5.722;2023-03-13T10:05:06;9.60;;;1.17;;
78885;SDS011;68269;52.514;5.722;2023-03-13T10:07:39;10.35;;;1.35;;
78885;SDS011;68269;52.514;5.722;2023-03-13T10:10:13;6.95;;;1.20;;
78885;SDS011;68269;52.514;5.722;2023-03-13T10:12:43;5.43;;;1.00;;
78885;SDS011;68269;52.514;5.722;2023-03-13T10:15:30;7.07;;;1.38;;
78885;SDS011;68269;52.514;5.722;2023-03-13T10:18:09;11.57;;;1.17;;
78885;SDS011;68269;52.514;5.722;2023-03-13T10:20:45;4.25;;;0.90;;
78885;SDS011;68269;52.514;5.722;2023-03-13T10:23:17;6.15;;;1.00;;
78885;SDS011;68269;52.514;5.722;2023-03-13T10:25:49;6.93;;;1.27;;
78885;SDS011;68269;52.514;5.722;2023-03-13T10:28:19;3.72;;;0.85;;
78885;SDS011;68269;52.514;5.722;2023-03-13T10:30:52;6.28;;;1.05;;
78885;SDS011;68269;52.514;5.722;2023-03-13T10:33:27;4.20;;;0.93;;
78885;SDS011;68269;52.514;5.722;2023-03-13T10:36:04;5.78;;;0.95;;
78885;SDS011;68269;52.514;5.722;2023-03-13T10:38:44;2.28;;;0.50;;
78885;SDS011;68269;52.514;5.722;2023-03-13T10:41:24;5.10;;;0.80;;
78885;SDS011;68269;52.514;5.722;2023-03-13T10:43:58;5.03;;;0.90;;
78885;SDS011;68269;52.514;5.722;2023-03-13T10:46:32;3.22;;;0.70;;
78885;SDS011;68269;52.514;5.722;2023-03-13T10:49:12;2.83;;;0.68;;
78885;SDS011;68269;52.514;5.722;2023-03-13T10:51:45;4.30;;;1.10;;
78885;SDS011;68269;52.514;5.722;2023-03-13T10:54:20;3.47;;;0.63;;
78885;SDS011;68269;52.514;5.722;2023-03-13T10:56:51;4.10;;;1.10;;
78885;SDS011;68269;52.514;5.722;2023-03-13T10:59:38;8.32;;;0.93;;
78885;SDS011;68269;52.514;5.722;2023-03-13T11:02:20;3.67;;;0.73;;
78885;SDS011;68269;52.514;5.722;2023-03-13T11:04:51;2.55;;;0.85;;
78885;SDS011;68269;52.514;5.722;2023-03-13T11:07:24;3.47;;;0.95;;
78885;SDS011;68269;52.514;5.722;2023-03-13T11:10:00;2.78;;;0.70;;
78885;SDS011;68269;52.514;5.722;2023-03-13T11:12:34;4.32;;;0.70;;
78885;SDS011;68269;52.514;5.722;2023-03-13T11:15:05;5.30;;;0.65;;
78885;SDS011;68269;52.514;5.722;2023-03-13T11:17:45;6.80;;;0.77;;
78885;SDS011;68269;52.514;5.722;2023-03-13T11:20:23;4.20;;;0.80;;
78885;SDS011;68269;52.514;5.722;2023-03-13T11:22:58;3.22;;;0.88;;
78885;SDS011;68269;52.514;5.722;2023-03-13T11:25:38;4.03;;;1.17;;
78885;SDS011;68269;52.514;5.722;2023-03-13T11:28:14;3.15;;;0.73;;
78885;SDS011;68269;52.514;5.722;2023-03-13T11:30:58;1.25;;;0.55;;
78885;SDS011;68269;52.514;5.722;2023-03-13T11:33:41;6.63;;;1.20;;
78885;SDS011;68269;52.514;5.722;2023-03-13T11:36:19;3.30;;;0.80;;
78885;SDS011;68269;52.514;5.722;2023-03-13T11:38:54;3.58;;;0.68;;
78885;SDS011;68269;52.514;5.722;2023-03-13T11:41:38;4.63;;;1.00;;
78885;SDS011;68269;52.514;5.722;2023-03-13T11:44:21;3.08;;;1.10;;
78885;SDS011;68269;52.514;5.722;2023-03-13T11:47:02;4.40;;;0.80;;
78885;SDS011;68269;52.514;5.722;2023-03-13T11:49:53;3.75;;;0.90;;
78885;SDS011;68269;52.514;5.722;2023-03-13T11:52:45;4.45;;;0.70;;
78885;SDS011;68269;52.514;5.722;2023-03-13T11:55:27;6.22;;;0.70;;
78885;SDS011;68269;52.514;5.722;2023-03-13T11:58:16;6.70;;;1.50;;
78885;SDS011;68269;52.514;5.722;2023-03-13T12:01:00;2.25;;;0.63;;
78885;SDS011;68269;52.514;5.722;2023-03-13T12:03:35;4.25;;;0.90;;
78885;SDS011;68269;52.514;5.722;2023-03-13T12:06:15;5.00;;;0.80;;
78885;SDS011;68269;52.514;5.722;2023-03-13T12:08:53;5.78;;;0.80;;
78885;SDS011;68269;52.514;5.722;2023-03-13T12:11:27;4.35;;;0.85;;
78885;SDS011;68269;52.514;5.722;2023-03-13T12:14:00;6.00;;;1.10;;
78885;SDS011;68269;52.514;5.722;2023-03-13T12:16:37;6.28;;;0.90;;
78885;SDS011;68269;52.514;5.722;2023-03-13T12:19:10;9.55;;;1.75;;
78885;SDS011;68269;52.514;5.722;2023-03-13T12:21:46;4.88;;;0.90;;
78885;SDS011;68269;52.514;5.722;2023-03-13T12:24:20;8.45;;;1.23;;
78885;SDS011;68269;52.514;5.722;2023-03-13T12:26:56;6.35;;;1.33;;
78885;SDS011;68269;52.514;5.722;2023-03-13T12:29:36;6.00;;;0.88;;
78885;SDS011;68269;52.514;5.722;2023-03-13T12:32:12;6.75;;;0.90;;
78885;SDS011;68269;52.514;5.722;2023-03-13T12:34:50;8.15;;;1.10;;
78885;SDS011;68269;52.514;5.722;2023-03-13T12:37:32;5.70;;;1.20;;
78885;SDS011;68269;52.514;5.722;2023-03-13T12:40:10;5.75;;;1.10;;
78885;SDS011;68269;52.514;5.722;2023-03-13T12:42:44;5.78;;;1.00;;
78885;SDS011;68269;52.514;5.722;2023-03-13T12:45:19;21.00;;;2.00;;
78885;SDS011;68269;52.514;5.722;2023-03-13T12:47:56;6.97;;;1.45;;
78885;SDS011;68269;52.514;5.722;2023-03-13T12:50:54;9.10;;;1.20;;
78885;SDS011;68269;52.514;5.722;2023-03-13T12:53:43;7.25;;;1.20;;
78885;SDS011;68269;52.514;5.722;2023-03-13T12:59:29;8.40;;;1.27;;
78885;SDS011;68269;52.514;5.722;2023-03-13T13:02:06;14.15;;;1.27;;
78885;SDS011;68269;52.514;5.722;2023-03-13T13:04:44;9.45;;;2.00;;
78885;SDS011;68269;52.514;5.722;2023-03-13T13:07:20;11.23;;;2.20;;
78885;SDS011;68269;52.514;5.722;2023-03-13T13:10:02;12.55;;;2.75;;
78885;SDS011;68269;52.514;5.722;2023-03-13T13:12:46;5.80;;;1.30;;
78885;SDS011;68269;52.514;5.722;2023-03-13T13:15:46;10.32;;;1.45;;
78885;SDS011;68269;52.514;5.722;2023-03-13T13:18:26;8.07;;;1.55;;
78885;SDS011;68269;52.514;5.722;2023-03-13T13:23:51;12.70;;;1.90;;
78885;SDS011;68269;52.514;5.722;2023-03-13T13:32:30;7.07;;;1.30;;
78885;SDS011;68269;52.514;5.722;2023-03-13T13:40:58;10.77;;;2.03;;
78885;SDS011;68269;52.514;5.722;2023-03-13T13:43:33;11.00;;;1.40;;
78885;SDS011;68269;52.514;5.722;2023-03-13T13:46:04;8.52;;;2.50;;
78885;SDS011;68269;52.514;5.722;2023-03-13T13:49:10;13.30;;;1.70;;
78885;SDS011;68269;52.514;5.722;2023-03-13T13:52:15;8.93;;;1.50;;
78885;SDS011;68269;52.514;5.722;2023-03-13T13:54:57;7.93;;;1.70;;
78885;SDS011;68269;52.514;5.722;2023-03-13T13:57:28;10.68;;;1.15;;
78885;SDS011;68269;52.514;5.722;2023-03-13T14:00:04;12.57;;;1.85;;
78885;SDS011;68269;52.514;5.722;2023-03-13T14:02:48;6.80;;;1.55;;
78885;SDS011;68269;52.514;5.722;2023-03-13T14:05:20;11.30;;;1.50;;
78885;SDS011;68269;52.514;5.722;2023-03-13T14:07:56;11.10;;;1.83;;
78885;SDS011;68269;52.514;5.722;2023-03-13T14:10:31;12.23;;;1.38;;
78885;SDS011;68269;52.514;5.722;2023-03-13T14:13:10;6.55;;;1.50;;
78885;SDS011;68269;52.514;5.722;2023-03-13T14:15:45;9.57;;;1.48;;
78885;SDS011;68269;52.514;5.722;2023-03-13T14:20:51;9.45;;;1.48;;
78885;SDS011;68269;52.514;5.722;2023-03-13T14:23:29;7.78;;;1.00;;
78885;SDS011;68269;52.514;5.722;2023-03-13T14:26:08;10.88;;;1.45;;
78885;SDS011;68269;52.514;5.722;2023-03-13T14:28:41;8.57;;;1.88;;
78885;SDS011;68269;52.514;5.722;2023-03-13T14:31:23;11.13;;;1.42;;
78885;SDS011;68269;52.514;5.722;2023-03-13T14:33:54;7.60;;;1.15;;
78885;SDS011;68269;52.514;5.722;2023-03-13T14:36:24;10.75;;;1.17;;
78885;SDS011;68269;52.514;5.722;2023-03-13T14:38:55;17.95;;;1.65;;
78885;SDS011;68269;52.514;5.722;2023-03-13T14:41:27;10.02;;;1.08;;
78885;SDS011;68269;52.514;5.722;2023-03-13T14:44:01;9.32;;;0.90;;
78885;SDS011;68269;52.514;5.722;2023-03-13T14:46:35;10.77;;;1.30;;
78885;SDS011;68269;52.514;5.722;2023-03-13T14:49:13;10.77;;;1.40;;
78885;SDS011;68269;52.514;5.722;2023-03-13T14:51:45;9.90;;;2.05;;
78885;SDS011;68269;52.514;5.722;2023-03-13T14:54:24;10.65;;;1.60;;
78885;SDS011;68269;52.514;5.722;2023-03-13T14:57:03;9.52;;;2.17;;
78885;SDS011;68269;52.514;5.722;2023-03-13T14:59:40;8.10;;;1.17;;
78885;SDS011;68269;52.514;5.722;2023-03-13T15:02:17;10.80;;;1.17;;
78885;SDS011;68269;52.514;5.722;2023-03-13T15:04:49;8.70;;;1.25;;
78885;SDS011;68269;52.514;5.722;2023-03-13T15:07:24;10.57;;;1.30;;
78885;SDS011;68269;52.514;5.722;2023-03-13T15:09:55;7.75;;;1.13;;
78885;SDS011;68269;52.514;5.722;2023-03-13T15:12:40;12.95;;;1.27;;
78885;SDS011;68269;52.514;5.722;2023-03-13T15:15:10;10.77;;;1.23;;
78885;SDS011;68269;52.514;5.722;2023-03-13T15:17:42;14.90;;;2.20;;
78885;SDS011;68269;52.514;5.722;2023-03-13T15:20:12;9.48;;;1.10;;
78885;SDS011;68269;52.514;5.722;2023-03-13T15:22:43;7.03;;;1.20;;
78885;SDS011;68269;52.514;5.722;2023-03-13T15:25:14;10.55;;;1.80;;
78885;SDS011;68269;52.514;5.722;2023-03-13T15:27:45;16.25;;;1.80;;
78885;SDS011;68269;52.514;5.722;2023-03-13T15:30:15;10.80;;;1.73;;
78885;SDS011;68269;52.514;5.722;2023-03-13T15:32:47;10.90;;;1.98;;
78885;SDS011;68269;52.514;5.722;2023-03-13T15:35:21;10.88;;;1.92;;
78885;SDS011;68269;52.514;5.722;2023-03-13T15:37:54;10.45;;;2.15;;
78885;SDS011;68269;52.514;5.722;2023-03-13T15:40:24;8.00;;;1.13;;
78885;SDS011;68269;52.514;5.722;2023-03-13T15:42:55;10.60;;;1.48;;
78885;SDS011;68269;52.514;5.722;2023-03-13T15:45:25;11.93;;;1.50;;
78885;SDS011;68269;52.514;5.722;2023-03-13T15:47:56;13.68;;;1.75;;
78885;SDS011;68269;52.514;5.722;2023-03-13T15:50:27;11.00;;;1.80;;
78885;SDS011;68269;52.514;5.722;2023-03-13T15:52:57;8.57;;;1.90;;
78885;SDS011;68269;52.514;5.722;2023-03-13T15:55:27;8.23;;;1.58;;
78885;SDS011;68269;52.514;5.722;2023-03-13T15:57:57;13.75;;;1.77;;
78885;SDS011;68269;52.514;5.722;2023-03-13T16:00:26;9.20;;;1.65;;